sensor_id;sensor_type;location;lat;lon;timestamp;pressure;altitude;pressure_sealevel;temperature;humidity
77323;BME280;66384;51.052;9.850;2023-06-19T00:00:10;98194.14;;;21.24;49.79
77323;BME280;66384;51.052;9.850;2023-06-19T00:02:43;98188.23;;;21.22;49.90
77323;BME280;66384;51.052;9.850;2023-06-19T00:05:13;98189.95;;;21.23;49.97
77323;BME280;66384;51.052;9.850;2023-06-19T00:07:42;98189.23;;;21.24;49.92
77323;BME280;66384;51.052;9.850;2023-06-19T00:10:11;98188.17;;;21.25;50.14
77323;BME280;66384;51.052;9.850;2023-06-19T00:12:41;98188.88;;;21.24;50.45
77323;BME280;66384;51.052;9.850;2023-06-19T00:15:11;98180.14;;;21.24;50.49
77323;BME280;66384;51.052;9.850;2023-06-19T00:17:41;98175.23;;;21.24;50.58
77323;BME280;66384;51.052;9.850;2023-06-19T00:20:11;98169.83;;;21.24;50.49
77323;BME280;66384;51.052;9.850;2023-06-19T00:22:41;98164.62;;;21.23;50.62
77323;BME280;66384;51.052;9.850;2023-06-19T00:25:11;98159.25;;;21.20;50.68
77323;BME280;66384;51.052;9.850;2023-06-19T00:27:40;98161.23;;;21.17;50.67
77323;BME280;66384;51.052;9.850;2023-06-19T00:30:11;98163.60;;;21.14;50.86
77323;BME280;66384;51.052;9.850;2023-06-19T00:32:40;98159.38;;;21.07;50.79
77323;BME280;66384;51.052;9.850;2023-06-19T00:35:16;98157.25;;;21.02;50.80
77323;BME280;66384;51.052;9.850;2023-06-19T00:37:45;98162.36;;;21.00;51.17
77323;BME280;66384;51.052;9.850;2023-06-19T00:40:19;98158.74;;;20.98;51.39
77323;BME280;66384;51.052;9.850;2023-06-19T00:42:50;98162.98;;;20.96;51.63
77323;BME280;66384;51.052;9.850;2023-06-19T00:45:19;98167.06;;;20.94;51.76
77323;BME280;66384;51.052;9.850;2023-06-19T00:47:48;98169.73;;;20.92;51.85
77323;BME280;66384;51.052;9.850;2023-06-19T00:50:18;98170.10;;;20.91;51.80
77323;BME280;66384;51.052;9.850;2023-06-19T00:52:47;98167.98;;;20.91;51.90
77323;BME280;66384;51.052;9.850;2023-06-19T00:55:17;98169.89;;;20.93;51.99
77323;BME280;66384;51.052;9.850;2023-06-19T00:57:47;98165.36;;;20.92;52.00
77323;BME280;66384;51.052;9.850;2023-06-19T01:00:17;98168.35;;;20.92;52.08
77323;BME280;66384;51.052;9.850;2023-06-19T01:02:47;98163.80;;;20.92;51.81
77323;BME280;66384;51.052;9.850;2023-06-19T01:05:15;98162.95;;;20.91;51.69
77323;BME280;66384;51.052;9.850;2023-06-19T01:07:47;98161.41;;;20.89;51.79
77323;BME280;66384;51.052;9.850;2023-06-19T01:10:21;98161.37;;;20.83;52.04
77323;BME280;66384;51.052;9.850;2023-06-19T01:12:59;98157.73;;;20.82;52.13
77323;BME280;66384;51.052;9.850;2023-06-19T01:15:28;98158.27;;;20.81;52.13
77323;BME280;66384;51.052;9.850;2023-06-19T01:17:58;98153.55;;;20.82;52.08
77323;BME280;66384;51.052;9.850;2023-06-19T01:20:29;98151.94;;;20.83;52.01
77323;BME280;66384;51.052;9.850;2023-06-19T01:23:07;98145.27;;;20.84;51.94
77323;BME280;66384;51.052;9.850;2023-06-19T01:25:36;98146.98;;;20.85;51.82
77323;BME280;66384;51.052;9.850;2023-06-19T01:28:06;98144.20;;;20.85;51.97
77323;BME280;66384;51.052;9.850;2023-06-19T01:30:38;98141.42;;;20.84;51.95
77323;BME280;66384;51.052;9.850;2023-06-19T01:33:11;98136.59;;;20.82;52.04
77323;BME280;66384;51.052;9.850;2023-06-19T01:35:43;98142.73;;;20.81;51.98
77323;BME280;66384;51.052;9.850;2023-06-19T01:38:14;98136.80;;;20.81;51.98
77323;BME280;66384;51.052;9.850;2023-06-19T01:40:43;98136.09;;;20.80;52.15
77323;BME280;66384;51.052;9.850;2023-06-19T01:43:14;98133.48;;;20.80;52.32
77323;BME280;66384;51.052;9.850;2023-06-19T01:45:44;98134.77;;;20.78;52.39
77323;BME280;66384;51.052;9.850;2023-06-19T01:48:14;98132.56;;;20.74;52.50
77323;BME280;66384;51.052;9.850;2023-06-19T01:50:46;98135.58;;;20.73;52.65
77323;BME280;66384;51.052;9.850;2023-06-19T01:53:16;98133.99;;;20.73;52.76
77323;BME280;66384;51.052;9.850;2023-06-19T01:55:45;98133.15;;;20.72;52.97
77323;BME280;66384;51.052;9.850;2023-06-19T01:58:14;98131.66;;;20.69;53.03
77323;BME280;66384;51.052;9.850;2023-06-19T02:00:45;98129.59;;;20.67;53.30
77323;BME280;66384;51.052;9.850;2023-06-19T02:03:15;98128.56;;;20.66;53.30
77323;BME280;66384;51.052;9.850;2023-06-19T02:05:44;98124.75;;;20.65;53.31
77323;BME280;66384;51.052;9.850;2023-06-19T02:08:13;98119.88;;;20.64;53.19
77323;BME280;66384;51.052;9.850;2023-06-19T02:10:43;98116.80;;;20.61;53.26
77323;BME280;66384;51.052;9.850;2023-06-19T02:13:12;98116.16;;;20.59;53.16
77323;BME280;66384;51.052;9.850;2023-06-19T02:15:41;98110.09;;;20.57;53.11
77323;BME280;66384;51.052;9.850;2023-06-19T02:18:10;98107.14;;;20.57;53.20
77323;BME280;66384;51.052;9.850;2023-06-19T02:20:40;98101.57;;;20.55;53.29
77323;BME280;66384;51.052;9.850;2023-06-19T02:23:09;98099.13;;;20.55;53.32
77323;BME280;66384;51.052;9.850;2023-06-19T02:25:38;98097.77;;;20.53;53.30
77323;BME280;66384;51.052;9.850;2023-06-19T02:28:07;98098.98;;;20.52;53.44
77323;BME280;66384;51.052;9.850;2023-06-19T02:30:37;98096.41;;;20.50;53.46
77323;BME280;66384;51.052;9.850;2023-06-19T02:33:06;98103.08;;;20.49;53.46
77323;BME280;66384;51.052;9.850;2023-06-19T02:35:35;98102.43;;;20.46;53.67
77323;BME280;66384;51.052;9.850;2023-06-19T02:38:04;98099.69;;;20.44;53.71
77323;BME280;66384;51.052;9.850;2023-06-19T02:40:34;98097.65;;;20.42;53.88
77323;BME280;66384;51.052;9.850;2023-06-19T02:43:03;98102.61;;;20.38;54.15
77323;BME280;66384;51.052;9.850;2023-06-19T02:45:32;98104.31;;;20.33;54.42
77323;BME280;66384;51.052;9.850;2023-06-19T02:48:01;98113.31;;;20.29;54.49
77323;BME280;66384;51.052;9.850;2023-06-19T02:50:30;98118.41;;;20.27;54.81
77323;BME280;66384;51.052;9.850;2023-06-19T02:53:00;98115.00;;;20.24;55.00
77323;BME280;66384;51.052;9.850;2023-06-19T02:55:29;98114.92;;;20.19;55.27
77323;BME280;66384;51.052;9.850;2023-06-19T02:57:58;98115.36;;;20.15;55.23
77323;BME280;66384;51.052;9.850;2023-06-19T03:00:28;98114.23;;;20.11;55.29
77323;BME280;66384;51.052;9.850;2023-06-19T03:02:57;98115.67;;;20.08;55.31
77323;BME280;66384;51.052;9.850;2023-06-19T03:05:27;98114.48;;;20.08;55.36
77323;BME280;66384;51.052;9.850;2023-06-19T03:07:56;98116.25;;;20.06;55.42
77323;BME280;66384;51.052;9.850;2023-06-19T03:10:25;98114.17;;;20.05;55.65
77323;BME280;66384;51.052;9.850;2023-06-19T03:12:54;98119.42;;;20.05;55.53
77323;BME280;66384;51.052;9.850;2023-06-19T03:15:23;98123.89;;;20.09;55.39
77323;BME280;66384;51.052;9.850;2023-06-19T03:17:53;98120.54;;;20.10;55.42
77323;BME280;66384;51.052;9.850;2023-06-19T03:20:22;98122.45;;;20.10;55.46
77323;BME280;66384;51.052;9.850;2023-06-19T03:22:52;98123.05;;;20.07;55.56
77323;BME280;66384;51.052;9.850;2023-06-19T03:25:21;98126.95;;;20.04;55.50
77323;BME280;66384;51.052;9.850;2023-06-19T03:27:50;98124.42;;;19.99;55.56
77323;BME280;66384;51.052;9.850;2023-06-19T03:30:19;98122.91;;;19.96;55.61
77323;BME280;66384;51.052;9.850;2023-06-19T03:32:48;98120.16;;;19.94;55.74
77323;BME280;66384;51.052;9.850;2023-06-19T03:35:18;98122.09;;;19.94;55.62
77323;BME280;66384;51.052;9.850;2023-06-19T03:37:47;98123.67;;;19.93;55.59
77323;BME280;66384;51.052;9.850;2023-06-19T03:40:16;98123.71;;;19.92;55.70
77323;BME280;66384;51.052;9.850;2023-06-19T03:42:45;98124.95;;;19.90;55.76
77323;BME280;66384;51.052;9.850;2023-06-19T03:45:15;98119.02;;;19.91;55.63
77323;BME280;66384;51.052;9.850;2023-06-19T03:47:44;98117.80;;;19.90;55.67
77323;BME280;66384;51.052;9.850;2023-06-19T03:50:13;98117.63;;;19.91;55.51
77323;BME280;66384;51.052;9.850;2023-06-19T03:52:43;98116.90;;;19.92;55.44
77323;BME280;66384;51.052;9.850;2023-06-19T03:55:12;98118.77;;;19.93;55.38
77323;BME280;66384;51.052;9.850;2023-06-19T03:57:41;98116.54;;;19.92;55.60
77323;BME280;66384;51.052;9.850;2023-06-19T04:00:12;98118.51;;;19.90;55.64
77323;BME280;66384;51.052;9.850;2023-06-19T04:02:41;98114.88;;;19.88;55.74
77323;BME280;66384;51.052;9.850;2023-06-19T04:05:10;98118.92;;;19.87;55.77
77323;BME280;66384;51.052;9.850;2023-06-19T04:07:40;98120.86;;;19.86;55.91
77323;BME280;66384;51.052;9.850;2023-06-19T04:10:10;98121.35;;;19.88;55.94
77323;BME280;66384;51.052;9.850;2023-06-19T04:12:39;98121.88;;;19.88;55.82
77323;BME280;66384;51.052;9.850;2023-06-19T04:15:10;98122.01;;;19.90;55.73
77323;BME280;66384;51.052;9.850;2023-06-19T04:17:39;98123.59;;;19.89;55.65
77323;BME280;66384;51.052;9.850;2023-06-19T04:20:10;98122.72;;;19.89;55.73
77323;BME280;66384;51.052;9.850;2023-06-19T04:22:42;98119.02;;;19.90;55.74
77323;BME280;66384;51.052;9.850;2023-06-19T04:25:12;98114.65;;;19.91;55.68
77323;BME280;66384;51.052;9.850;2023-06-19T04:27:41;98110.92;;;19.93;55.46
77323;BME280;66384;51.052;9.850;2023-06-19T04:30:13;98108.98;;;19.95;55.11
77323;BME280;66384;51.052;9.850;2023-06-19T04:32:42;98109.81;;;19.96;55.00
77323;BME280;66384;51.052;9.850;2023-06-19T04:35:11;98114.85;;;19.98;55.05
77323;BME280;66384;51.052;9.850;2023-06-19T04:37:40;98116.23;;;19.99;55.06
77323;BME280;66384;51.052;9.850;2023-06-19T04:40:11;98119.86;;;20.01;55.11
77323;BME280;66384;51.052;9.850;2023-06-19T04:42:39;98122.13;;;20.01;55.24
77323;BME280;66384;51.052;9.850;2023-06-19T04:45:09;98127.55;;;20.00;55.43
77323;BME280;66384;51.052;9.850;2023-06-19T04:47:39;98126.64;;;20.02;55.53
77323;BME280;66384;51.052;9.850;2023-06-19T04:50:10;98127.80;;;20.05;55.85
77323;BME280;66384;51.052;9.850;2023-06-19T04:52:39;98132.87;;;20.05;55.99
77323;BME280;66384;51.052;9.850;2023-06-19T04:55:09;98139.27;;;20.07;56.13
77323;BME280;66384;51.052;9.850;2023-06-19T04:57:39;98140.98;;;20.09;56.20
77323;BME280;66384;51.052;9.850;2023-06-19T05:00:10;98147.21;;;20.11;56.08
77323;BME280;66384;51.052;9.850;2023-06-19T05:02:40;98152.94;;;20.13;56.29
77323;BME280;66384;51.052;9.850;2023-06-19T05:05:11;98155.17;;;20.15;56.11
77323;BME280;66384;51.052;9.850;2023-06-19T05:07:42;98158.30;;;20.16;55.95
77323;BME280;66384;51.052;9.850;2023-06-19T05:10:13;98159.38;;;20.14;55.86
77323;BME280;66384;51.052;9.850;2023-06-19T05:12:42;98159.38;;;20.15;55.86
77323;BME280;66384;51.052;9.850;2023-06-19T05:15:12;98167.03;;;20.16;55.69
77323;BME280;66384;51.052;9.850;2023-06-19T05:17:41;98169.34;;;20.14;55.69
77323;BME280;66384;51.052;9.850;2023-06-19T05:20:14;98174.41;;;20.14;55.63
77323;BME280;66384;51.052;9.850;2023-06-19T05:22:43;98179.94;;;20.16;55.62
77323;BME280;66384;51.052;9.850;2023-06-19T05:25:13;98183.58;;;20.18;55.62
77323;BME280;66384;51.052;9.850;2023-06-19T05:27:42;98187.55;;;20.20;55.81
77323;BME280;66384;51.052;9.850;2023-06-19T05:30:13;98194.29;;;20.23;55.98
77323;BME280;66384;51.052;9.850;2023-06-19T05:32:42;98199.11;;;20.27;56.08
77323;BME280;66384;51.052;9.850;2023-06-19T05:35:12;98197.98;;;20.31;56.11
77323;BME280;66384;51.052;9.850;2023-06-19T05:37:41;98193.86;;;20.36;56.15
77323;BME280;66384;51.052;9.850;2023-06-19T05:40:12;98194.45;;;20.40;56.27
77323;BME280;66384;51.052;9.850;2023-06-19T05:42:41;98194.91;;;20.44;56.03
77323;BME280;66384;51.052;9.850;2023-06-19T05:45:12;98195.86;;;20.48;55.76
77323;BME280;66384;51.052;9.850;2023-06-19T05:47:41;98193.69;;;20.53;55.72
77323;BME280;66384;51.052;9.850;2023-06-19T05:50:12;98193.59;;;20.57;55.39
77323;BME280;66384;51.052;9.850;2023-06-19T05:52:42;98193.49;;;20.62;55.20
77323;BME280;66384;51.052;9.850;2023-06-19T05:55:11;98197.21;;;20.68;55.14
77323;BME280;66384;51.052;9.850;2023-06-19T05:57:41;98198.66;;;20.73;55.07
77323;BME280;66384;51.052;9.850;2023-06-19T06:00:12;98198.17;;;20.79;55.01
77323;BME280;66384;51.052;9.850;2023-06-19T06:02:53;98203.46;;;20.85;54.90
77323;BME280;66384;51.052;9.850;2023-06-19T06:05:28;98208.71;;;20.92;54.77
77323;BME280;66384;51.052;9.850;2023-06-19T06:07:57;98212.97;;;20.97;54.12
77323;BME280;66384;51.052;9.850;2023-06-19T06:10:27;98216.55;;;21.00;52.60
77323;BME280;66384;51.052;9.850;2023-06-19T06:12:57;98212.98;;;21.04;51.66
77323;BME280;66384;51.052;9.850;2023-06-19T06:15:26;98222.26;;;21.04;50.80
77323;BME280;66384;51.052;9.850;2023-06-19T06:17:56;98221.05;;;21.02;50.36
77323;BME280;66384;51.052;9.850;2023-06-19T06:20:25;98218.12;;;21.01;50.14
77323;BME280;66384;51.052;9.850;2023-06-19T06:22:54;98224.23;;;21.02;50.11
77323;BME280;66384;51.052;9.850;2023-06-19T06:25:23;98224.90;;;21.03;49.79
77323;BME280;66384;51.052;9.850;2023-06-19T06:27:53;98219.95;;;21.05;49.75
77323;BME280;66384;51.052;9.850;2023-06-19T06:30:22;98221.63;;;21.08;49.69
77323;BME280;66384;51.052;9.850;2023-06-19T06:32:51;98221.54;;;21.11;49.33
77323;BME280;66384;51.052;9.850;2023-06-19T06:35:21;98223.59;;;21.13;49.35
77323;BME280;66384;51.052;9.850;2023-06-19T06:37:50;98227.34;;;21.18;49.45
77323;BME280;66384;51.052;9.850;2023-06-19T06:40:19;98229.38;;;21.21;49.18
77323;BME280;66384;51.052;9.850;2023-06-19T06:42:48;98229.45;;;21.25;49.33
77323;BME280;66384;51.052;9.850;2023-06-19T06:45:18;98230.93;;;21.28;49.45
77323;BME280;66384;51.052;9.850;2023-06-19T06:47:47;98239.21;;;21.32;49.39
77323;BME280;66384;51.052;9.850;2023-06-19T06:50:16;98242.32;;;21.36;49.44
77323;BME280;66384;51.052;9.850;2023-06-19T06:52:46;98247.11;;;21.41;49.15
77323;BME280;66384;51.052;9.850;2023-06-19T06:55:15;98249.44;;;21.45;48.98
77323;BME280;66384;51.052;9.850;2023-06-19T06:57:44;98255.95;;;21.51;48.98
77323;BME280;66384;51.052;9.850;2023-06-19T07:00:15;98256.73;;;21.54;49.03
77323;BME280;66384;51.052;9.850;2023-06-19T07:02:46;98254.04;;;21.57;49.03
77323;BME280;66384;51.052;9.850;2023-06-19T07:05:16;98258.56;;;21.58;49.03
77323;BME280;66384;51.052;9.850;2023-06-19T07:07:45;98256.79;;;21.60;49.08
77323;BME280;66384;51.052;9.850;2023-06-19T07:10:15;98259.33;;;21.63;48.89
77323;BME280;66384;51.052;9.850;2023-06-19T07:12:48;98254.32;;;21.67;49.03
77323;BME280;66384;51.052;9.850;2023-06-19T07:15:18;98255.23;;;21.72;49.05
77323;BME280;66384;51.052;9.850;2023-06-19T07:17:47;98254.27;;;21.75;49.26
77323;BME280;66384;51.052;9.850;2023-06-19T07:20:17;98249.79;;;21.80;49.10
77323;BME280;66384;51.052;9.850;2023-06-19T07:22:46;98246.63;;;21.87;48.71
77323;BME280;66384;51.052;9.850;2023-06-19T07:25:16;98239.77;;;21.94;48.56
77323;BME280;66384;51.052;9.850;2023-06-19T07:27:45;98239.73;;;22.01;48.47
77323;BME280;66384;51.052;9.850;2023-06-19T07:30:15;98244.79;;;22.10;48.25
77323;BME280;66384;51.052;9.850;2023-06-19T07:32:44;98245.75;;;22.19;48.34
77323;BME280;66384;51.052;9.850;2023-06-19T07:35:13;98250.74;;;22.29;48.54
77323;BME280;66384;51.052;9.850;2023-06-19T07:37:43;98251.36;;;22.39;48.86
77323;BME280;66384;51.052;9.850;2023-06-19T07:40:13;98253.88;;;22.48;48.91
77323;BME280;66384;51.052;9.850;2023-06-19T07:42:42;98254.90;;;22.56;48.67
77323;BME280;66384;51.052;9.850;2023-06-19T07:45:13;98258.02;;;22.63;48.68
77323;BME280;66384;51.052;9.850;2023-06-19T07:47:43;98254.79;;;22.71;48.67
77323;BME280;66384;51.052;9.850;2023-06-19T07:50:12;98253.82;;;22.81;48.51
77323;BME280;66384;51.052;9.850;2023-06-19T07:52:41;98258.39;;;22.92;48.65
77323;BME280;66384;51.052;9.850;2023-06-19T07:55:11;98260.11;;;23.04;48.38
77323;BME280;66384;51.052;9.850;2023-06-19T07:57:40;98253.26;;;23.16;48.20
77323;BME280;66384;51.052;9.850;2023-06-19T08:00:11;98257.09;;;23.28;47.78
77323;BME280;66384;51.052;9.850;2023-06-19T08:02:41;98257.95;;;23.40;47.76
77323;BME280;66384;51.052;9.850;2023-06-19T08:05:11;98256.02;;;23.51;47.64
77323;BME280;66384;51.052;9.850;2023-06-19T08:07:40;98257.76;;;23.62;47.45
77323;BME280;66384;51.052;9.850;2023-06-19T08:10:10;98259.89;;;23.72;47.31
77323;BME280;66384;51.052;9.850;2023-06-19T08:12:42;98259.70;;;23.82;47.23
77323;BME280;66384;51.052;9.850;2023-06-19T08:15:12;98258.80;;;23.93;46.92
77323;BME280;66384;51.052;9.850;2023-06-19T08:17:42;98256.42;;;24.01;46.73
77323;BME280;66384;51.052;9.850;2023-06-19T08:20:12;98255.80;;;24.09;46.83
77323;BME280;66384;51.052;9.850;2023-06-19T08:22:41;98258.70;;;24.17;46.62
77323;BME280;66384;51.052;9.850;2023-06-19T08:25:10;98256.83;;;24.24;46.79
77323;BME280;66384;51.052;9.850;2023-06-19T08:27:40;98257.88;;;24.34;46.69
77323;BME280;66384;51.052;9.850;2023-06-19T08:30:10;98257.34;;;24.44;46.72
77323;BME280;66384;51.052;9.850;2023-06-19T08:32:39;98253.98;;;24.55;46.80
77323;BME280;66384;51.052;9.850;2023-06-19T08:35:09;98247.67;;;24.64;46.59
77323;BME280;66384;51.052;9.850;2023-06-19T08:37:38;98245.18;;;24.74;46.40
77323;BME280;66384;51.052;9.850;2023-06-19T08:40:09;98244.30;;;24.83;46.10
77323;BME280;66384;51.052;9.850;2023-06-19T08:42:39;98245.23;;;24.91;46.06
77323;BME280;66384;51.052;9.850;2023-06-19T08:45:11;98248.39;;;25.00;45.97
77323;BME280;66384;51.052;9.850;2023-06-19T08:47:40;98253.13;;;25.09;45.76
77323;BME280;66384;51.052;9.850;2023-06-19T08:50:10;98251.73;;;25.18;45.93
77323;BME280;66384;51.052;9.850;2023-06-19T08:52:39;98249.68;;;25.26;45.54
77323;BME280;66384;51.052;9.850;2023-06-19T08:55:09;98250.38;;;25.30;45.64
77323;BME280;66384;51.052;9.850;2023-06-19T08:57:39;98256.55;;;25.34;45.53
77323;BME280;66384;51.052;9.850;2023-06-19T09:00:10;98256.27;;;25.37;45.44
77323;BME280;66384;51.052;9.850;2023-06-19T09:02:41;98259.00;;;25.39;45.39
77323;BME280;66384;51.052;9.850;2023-06-19T09:05:14;98261.73;;;25.41;45.36
77323;BME280;66384;51.052;9.850;2023-06-19T09:07:44;98266.31;;;25.45;45.61
77323;BME280;66384;51.052;9.850;2023-06-19T09:10:19;98266.91;;;25.48;45.33
77323;BME280;66384;51.052;9.850;2023-06-19T09:12:59;98264.66;;;25.51;45.59
77323;BME280;66384;51.052;9.850;2023-06-19T09:15:32;98269.19;;;25.57;45.67
77323;BME280;66384;51.052;9.850;2023-06-19T09:18:06;98272.11;;;25.62;45.50
77323;BME280;66384;51.052;9.850;2023-06-19T09:20:37;98265.50;;;25.69;45.47
77323;BME280;66384;51.052;9.850;2023-06-19T09:23:10;98266.86;;;25.74;45.56
77323;BME280;66384;51.052;9.850;2023-06-19T09:25:47;98265.79;;;25.79;45.61
77323;BME280;66384;51.052;9.850;2023-06-19T09:28:21;98271.34;;;25.86;45.59
77323;BME280;66384;51.052;9.850;2023-06-19T09:30:55;98273.94;;;25.91;45.71
77323;BME280;66384;51.052;9.850;2023-06-19T09:33:26;98273.95;;;25.95;45.69
77323;BME280;66384;51.052;9.850;2023-06-19T09:35:57;98265.23;;;26.01;45.65
77323;BME280;66384;51.052;9.850;2023-06-19T09:38:28;98272.06;;;26.06;45.46
77323;BME280;66384;51.052;9.850;2023-06-19T09:41:00;98269.49;;;26.08;45.06
77323;BME280;66384;51.052;9.850;2023-06-19T09:43:35;98269.63;;;26.09;45.27
77323;BME280;66384;51.052;9.850;2023-06-19T09:46:07;98267.73;;;26.08;45.03
77323;BME280;66384;51.052;9.850;2023-06-19T09:48:43;98268.65;;;26.07;45.20
77323;BME280;66384;51.052;9.850;2023-06-19T09:51:19;98270.24;;;26.07;45.40
77323;BME280;66384;51.052;9.850;2023-06-19T09:53:49;98267.88;;;26.09;45.33
77323;BME280;66384;51.052;9.850;2023-06-19T09:56:19;98267.96;;;26.11;45.35
77323;BME280;66384;51.052;9.850;2023-06-19T09:58:51;98270.20;;;26.13;45.37
77323;BME280;66384;51.052;9.850;2023-06-19T10:01:22;98267.42;;;26.11;45.52
77323;BME280;66384;51.052;9.850;2023-06-19T10:04:03;98265.49;;;26.07;45.54
77323;BME280;66384;51.052;9.850;2023-06-19T10:06:33;98261.86;;;26.06;45.71
77323;BME280;66384;51.052;9.850;2023-06-19T10:09:11;98262.14;;;26.03;45.82
77323;BME280;66384;51.052;9.850;2023-06-19T10:11:49;98266.23;;;26.02;45.74
77323;BME280;66384;51.052;9.850;2023-06-19T10:14:20;98265.80;;;26.04;45.79
77323;BME280;66384;51.052;9.850;2023-06-19T10:16:49;98269.95;;;26.10;46.05
77323;BME280;66384;51.052;9.850;2023-06-19T10:19:20;98272.22;;;26.15;45.93
77323;BME280;66384;51.052;9.850;2023-06-19T10:21:51;98272.48;;;26.21;45.76
77323;BME280;66384;51.052;9.850;2023-06-19T10:24:22;98275.23;;;26.26;45.58
77323;BME280;66384;51.052;9.850;2023-06-19T10:27:00;98274.64;;;26.31;45.44
77323;BME280;66384;51.052;9.850;2023-06-19T10:29:39;98273.98;;;26.39;45.30
77323;BME280;66384;51.052;9.850;2023-06-19T10:32:09;98273.31;;;26.45;45.40
77323;BME280;66384;51.052;9.850;2023-06-19T10:34:38;98276.55;;;26.48;45.56
77323;BME280;66384;51.052;9.850;2023-06-19T10:37:07;98278.33;;;26.44;45.11
77323;BME280;66384;51.052;9.850;2023-06-19T10:39:36;98280.64;;;26.39;45.30
77323;BME280;66384;51.052;9.850;2023-06-19T10:42:09;98282.81;;;26.38;45.30
77323;BME280;66384;51.052;9.850;2023-06-19T10:44:38;98277.86;;;26.39;45.15
77323;BME280;66384;51.052;9.850;2023-06-19T10:47:10;98277.50;;;26.39;45.44
77323;BME280;66384;51.052;9.850;2023-06-19T10:49:39;98278.62;;;26.42;45.46
77323;BME280;66384;51.052;9.850;2023-06-19T10:52:09;98279.16;;;26.45;45.77
77323;BME280;66384;51.052;9.850;2023-06-19T10:54:38;98281.64;;;26.53;45.47
77323;BME280;66384;51.052;9.850;2023-06-19T10:57:08;98285.30;;;26.62;45.08
77323;BME280;66384;51.052;9.850;2023-06-19T10:59:38;98282.50;;;26.69;44.72
77323;BME280;66384;51.052;9.850;2023-06-19T11:02:08;98274.83;;;26.75;44.85
77323;BME280;66384;51.052;9.850;2023-06-19T11:04:39;98275.33;;;26.87;45.00
77323;BME280;66384;51.052;9.850;2023-06-19T11:07:09;98277.91;;;26.99;44.66
77323;BME280;66384;51.052;9.850;2023-06-19T11:09:38;98279.56;;;27.06;44.44
77323;BME280;66384;51.052;9.850;2023-06-19T11:12:09;98286.15;;;27.09;44.28
77323;BME280;66384;51.052;9.850;2023-06-19T11:14:39;98284.14;;;27.09;44.05
77323;BME280;66384;51.052;9.850;2023-06-19T11:17:09;98283.20;;;27.11;44.07
77323;BME280;66384;51.052;9.850;2023-06-19T11:19:39;98285.36;;;27.10;44.16
77323;BME280;66384;51.052;9.850;2023-06-19T11:22:11;98285.97;;;27.08;44.06
77323;BME280;66384;51.052;9.850;2023-06-19T11:24:46;98281.08;;;27.07;43.79
77323;BME280;66384;51.052;9.850;2023-06-19T11:27:20;98290.64;;;27.07;43.64
77323;BME280;66384;51.052;9.850;2023-06-19T11:29:57;98285.84;;;27.07;43.57
77323;BME280;66384;51.052;9.850;2023-06-19T11:32:33;98290.39;;;27.16;43.52
77323;BME280;66384;51.052;9.850;2023-06-19T11:35:09;98286.33;;;27.27;43.62
77323;BME280;66384;51.052;9.850;2023-06-19T11:37:41;98284.02;;;27.39;43.32
77323;BME280;66384;51.052;9.850;2023-06-19T11:40:11;98283.93;;;27.51;42.79
77323;BME280;66384;51.052;9.850;2023-06-19T11:42:53;98286.52;;;27.60;42.51
77323;BME280;66384;51.052;9.850;2023-06-19T11:45:23;98288.00;;;27.62;42.17
77323;BME280;66384;51.052;9.850;2023-06-19T11:47:52;98287.88;;;27.64;41.75
77323;BME280;66384;51.052;9.850;2023-06-19T11:50:27;98287.86;;;27.68;41.74
77323;BME280;66384;51.052;9.850;2023-06-19T11:52:56;98284.61;;;27.66;41.54
77323;BME280;66384;51.052;9.850;2023-06-19T11:55:28;98280.79;;;27.68;41.39
77323;BME280;66384;51.052;9.850;2023-06-19T11:57:57;98288.74;;;27.68;40.98
77323;BME280;66384;51.052;9.850;2023-06-19T12:00:26;98283.48;;;27.67;41.08
77323;BME280;66384;51.052;9.850;2023-06-19T12:02:56;98293.11;;;27.69;41.21
77323;BME280;66384;51.052;9.850;2023-06-19T12:05:26;98294.29;;;27.71;40.35
77323;BME280;66384;51.052;9.850;2023-06-19T12:07:55;98295.58;;;27.73;40.16
77323;BME280;66384;51.052;9.850;2023-06-19T12:10:25;98297.78;;;27.75;39.29
77323;BME280;66384;51.052;9.850;2023-06-19T12:12:54;98286.51;;;27.74;39.04
77323;BME280;66384;51.052;9.850;2023-06-19T12:15:24;98292.03;;;27.77;39.08
77323;BME280;66384;51.052;9.850;2023-06-19T12:17:53;98284.74;;;27.78;39.10
77323;BME280;66384;51.052;9.850;2023-06-19T12:20:25;98277.27;;;27.79;39.04
77323;BME280;66384;51.052;9.850;2023-06-19T12:22:55;98271.72;;;27.81;38.94
77323;BME280;66384;51.052;9.850;2023-06-19T12:25:24;98269.65;;;27.83;38.94
77323;BME280;66384;51.052;9.850;2023-06-19T12:27:53;98275.88;;;27.89;38.64
77323;BME280;66384;51.052;9.850;2023-06-19T12:30:22;98273.49;;;27.94;38.42
77323;BME280;66384;51.052;9.850;2023-06-19T12:32:52;98277.13;;;28.02;38.47
77323;BME280;66384;51.052;9.850;2023-06-19T12:35:22;98275.66;;;28.11;38.26
77323;BME280;66384;51.052;9.850;2023-06-19T12:37:51;98277.48;;;28.20;37.84
77323;BME280;66384;51.052;9.850;2023-06-19T12:40:20;98280.64;;;28.27;37.26
77323;BME280;66384;51.052;9.850;2023-06-19T12:42:49;98278.72;;;28.30;36.57
77323;BME280;66384;51.052;9.850;2023-06-19T12:45:19;98280.50;;;28.29;36.78
77323;BME280;66384;51.052;9.850;2023-06-19T12:47:49;98282.32;;;28.32;37.03
77323;BME280;66384;51.052;9.850;2023-06-19T12:50:18;98276.95;;;28.36;37.06
77323;BME280;66384;51.052;9.850;2023-06-19T12:52:47;98281.56;;;28.43;37.12
77323;BME280;66384;51.052;9.850;2023-06-19T12:55:17;98280.00;;;28.50;36.93
77323;BME280;66384;51.052;9.850;2023-06-19T12:57:46;98277.91;;;28.56;36.98
77323;BME280;66384;51.052;9.850;2023-06-19T13:00:16;98273.63;;;28.56;36.85
77323;BME280;66384;51.052;9.850;2023-06-19T13:02:46;98273.89;;;28.58;36.91
77323;BME280;66384;51.052;9.850;2023-06-19T13:05:15;98273.02;;;28.61;36.84
77323;BME280;66384;51.052;9.850;2023-06-19T13:07:44;98274.86;;;28.63;36.81
77323;BME280;66384;51.052;9.850;2023-06-19T13:10:14;98272.61;;;28.66;36.96
77323;BME280;66384;51.052;9.850;2023-06-19T13:12:43;98275.75;;;28.67;37.04
77323;BME280;66384;51.052;9.850;2023-06-19T13:15:12;98272.16;;;28.67;37.01